KXNA/XNA METAR and TAF weather

Enter ICAO airport designator
Station Type Date Time Source
KXNA METAR 2019/07/20 04:53 UTC NOAA

KXNA 200453Z AUTO 18008KT 10SM CLR 26/21 A2998 RMK AO2 SLP133 T02610206


Station Type Date Time Source
KXNA Decoded METAR 2019/07/20 04:53 UTC NOAA

NORTHWEST ARKANSAS REGIONAL, AR, United States (KXNA) 36-17N 94-18W
Jul 20, 2019 - 12:53 AM EDT / 2019.07.20 0453 UTC
Wind: from the S (180 degrees) at 9 MPH (8 KT):0
Visibility: 10 mile(s):0
Sky conditions: clear
Temperature: 79.0 F (26.1 C)
Dew Point: 69.1 F (20.6 C)
Relative Humidity: 71%
Pressure (altimeter): 29.98 in. Hg (1015 hPa)
ob: KXNA 200453Z AUTO 18008KT 10SM CLR 26/21 A2998 RMK AO2 SLP133 T02610206
cycle: 5

Station Type Date Time Source
KXNA TAF 2019/07/19 18:24 UTC NOAA

TAF KXNA 191721Z 1918/2018 20010KT P6SM SKC
FM200100 19007KT P6SM SKC
FM201500 20012G20KT P6SM SKC

Example: see airport list